Time;durP1;ratioP1;P1;durP2;ratioP2;P2;SDS_P1;SDS_P2;PMS_P1;PMS_P2;Temp;Humidity;BMP_temperature;BMP_pressure;BME280_temperature;BME280_humidity;BME280_pressure;Samples;Min_cycle;Max_cycle;Signal;HPM_P1;HPM_P2
2023/06/03 00:01:04;;;;;;;23.33;21.38;;;10.50;99.90;;;;;;4966621;28;20722;-73
2023/06/03 00:03:34;;;;;;;22.92;21.05;;;10.60;99.90;;;;;;4967618;28;20150;-74
2023/06/03 00:06:01;;;;;;;23.20;21.50;;;10.50;99.90;;;;;;4965346;28;20035;-74
2023/06/03 00:08:28;;;;;;;23.23;21.45;;;10.40;99.90;;;;;;4970065;28;20050;-73
2023/06/03 00:10:54;;;;;;;23.48;21.70;;;10.40;99.90;;;;;;4966872;28;20051;-74
2023/06/03 00:13:21;;;;;;;23.08;21.58;;;10.30;99.90;;;;;;4964021;28;20544;-73
2023/06/03 00:15:48;;;;;;;24.00;22.10;;;10.30;99.90;;;;;;4967866;28;20496;-74
2023/06/03 00:18:15;;;;;;;23.60;22.00;;;10.20;99.90;;;;;;4956708;28;20051;-73
2023/06/03 00:20:47;;;;;;;24.00;22.40;;;10.00;99.90;;;;;;4967089;28;20607;-74
2023/06/03 00:23:15;;;;;;;23.95;22.25;;;10.00;99.90;;;;;;4964709;28;20053;-74
2023/06/03 00:25:42;;;;;;;24.25;22.30;;;9.80;99.90;;;;;;4960613;28;20041;-74
2023/06/03 00:28:09;;;;;;;24.55;22.75;;;9.80;99.90;;;;;;4962432;28;20649;-73
2023/06/03 00:30:36;;;;;;;24.00;22.17;;;9.70;99.90;;;;;;4974780;28;20144;-74
2023/06/03 00:33:04;;;;;;;24.00;22.20;;;9.50;99.90;;;;;;4969025;28;21023;-74
2023/06/03 00:35:32;;;;;;;24.52;22.60;;;9.40;99.90;;;;;;4976064;28;20105;-73
2023/06/03 00:37:59;;;;;;;24.38;22.60;;;9.20;99.90;;;;;;4972228;28;20109;-72
2023/06/03 00:40:26;;;;;;;24.65;22.95;;;9.10;99.90;;;;;;4970826;28;20393;-74
2023/06/03 00:42:56;;;;;;;25.05;23.25;;;8.90;99.90;;;;;;4964056;28;20485;-74
2023/06/03 00:45:23;;;;;;;25.30;23.40;;;8.70;99.90;;;;;;4970759;28;20239;-73
2023/06/03 00:47:51;;;;;;;26.05;23.60;;;8.60;99.90;;;;;;4982628;28;20042;-74
2023/06/03 00:50:18;;;;;;;25.08;23.25;;;8.50;99.90;;;;;;4963504;28;20287;-73
2023/06/03 00:52:46;;;;;;;25.20;23.40;;;8.30;99.90;;;;;;4971081;28;20054;-73
2023/06/03 00:55:13;;;;;;;25.83;23.83;;;8.20;99.90;;;;;;4961959;28;20046;-74
2023/06/03 00:57:40;;;;;;;25.55;23.15;;;8.10;99.90;;;;;;4974822;28;20054;-74
2023/06/03 01:00:08;;;;;;;25.60;23.60;;;7.90;99.90;;;;;;4966757;28;20392;-74
2023/06/03 01:02:36;;;;;;;25.10;22.95;;;7.80;99.90;;;;;;4972170;28;20500;-74
2023/06/03 01:05:04;;;;;;;24.23;22.38;;;7.70;99.90;;;;;;4970369;28;20058;-74
2023/06/03 01:08:01;;;;;;;25.10;22.88;;;7.80;99.90;;;;;;4969013;28;20031;-74
2023/06/03 01:10:37;;;;;;;24.42;22.35;;;7.70;99.90;;;;;;4981045;28;20050;-75
2023/06/03 01:13:09;;;;;;;24.63;22.63;;;7.60;99.90;;;;;;4981607;28;20066;-73
2023/06/03 01:15:38;;;;;;;24.08;22.15;;;7.30;99.90;;;;;;4973888;28;20066;-73
2023/06/03 01:18:06;;;;;;;24.50;22.70;;;7.30;99.90;;;;;;4967057;28;20813;-74
2023/06/03 01:20:34;;;;;;;24.05;22.20;;;7.20;99.90;;;;;;4963791;28;20519;-74
2023/06/03 01:23:28;;;;;;;24.42;22.63;;;7.10;99.90;;;;;;4985863;28;20129;-73
2023/06/03 01:26:00;;;;;;;24.23;22.42;;;7.00;99.90;;;;;;4967018;28;20595;-74
2023/06/03 01:28:28;;;;;;;23.27;21.55;;;6.90;99.90;;;;;;4952077;28;20416;-74
2023/06/03 01:30:56;;;;;;;23.23;21.48;;;6.80;99.90;;;;;;4981667;28;20097;-74
2023/06/03 01:33:26;;;;;;;23.55;21.85;;;6.80;99.90;;;;;;4965773;28;20050;-73
2023/06/03 01:35:55;;;;;;;24.15;22.27;;;6.70;99.90;;;;;;4968731;28;20070;-72
2023/06/03 01:38:23;;;;;;;22.52;20.92;;;6.50;99.90;;;;;;4968522;28;20344;-74
2023/06/03 01:40:55;;;;;;;22.63;21.00;;;6.50;99.90;;;;;;4980412;28;20233;-74
2023/06/03 01:43:22;;;;;;;22.45;20.65;;;6.40;99.90;;;;;;4974192;28;20046;-76
2023/06/03 01:45:48;;;;;;;22.30;20.50;;;6.30;99.90;;;;;;4981992;28;20567;-74
2023/06/03 01:48:15;;;;;;;22.35;20.67;;;6.20;99.90;;;;;;4956126;28;20702;-75
2023/06/03 01:50:43;;;;;;;23.40;21.63;;;6.20;99.90;;;;;;4969658;28;20122;-75
2023/06/03 01:53:13;;;;;;;22.90;21.10;;;6.10;99.90;;;;;;4984441;28;20116;-73
2023/06/03 01:55:41;;;;;;;21.85;20.17;;;6.20;99.90;;;;;;4955096;28;20424;-74
2023/06/03 01:58:08;;;;;;;22.42;20.65;;;6.00;99.90;;;;;;4971849;28;20141;-73
2023/06/03 02:00:35;;;;;;;22.13;20.60;;;5.90;99.90;;;;;;4970113;28;20058;-76
2023/06/03 02:03:02;;;;;;;23.33;21.13;;;5.80;99.90;;;;;;4964687;28;20046;-74
2023/06/03 02:05:29;;;;;;;21.75;20.25;;;5.80;99.90;;;;;;4972090;28;20192;-73
2023/06/03 02:07:57;;;;;;;22.55;20.95;;;5.80;99.90;;;;;;4967123;28;20074;-74
2023/06/03 02:10:25;;;;;;;23.10;21.40;;;5.80;99.90;;;;;;4968190;28;20048;-73
2023/06/03 02:12:53;;;;;;;22.65;20.98;;;5.70;99.90;;;;;;4967413;28;20038;-72
2023/06/03 02:15:20;;;;;;;22.80;21.10;;;5.70;99.90;;;;;;4962261;28;20074;-73
2023/06/03 02:17:48;;;;;;;22.92;21.00;;;5.70;99.90;;;;;;4981923;28;20054;-73
2023/06/03 02:20:15;;;;;;;21.75;20.25;;;5.60;99.90;;;;;;4980696;28;20047;-74
2023/06/03 02:22:42;;;;;;;22.83;20.75;;;5.50;99.90;;;;;;4974142;28;20062;-75
2023/06/03 02:25:09;;;;;;;22.58;20.77;;;5.50;99.90;;;;;;4962259;28;20074;-74
2023/06/03 02:27:36;;;;;;;21.58;20.08;;;5.50;99.90;;;;;;4971322;28;20101;-75
2023/06/03 02:30:04;;;;;;;21.33;19.63;;;5.40;99.90;;;;;;4967098;28;20101;-75
2023/06/03 02:32:31;;;;;;;21.15;19.40;;;5.40;99.90;;;;;;4952743;28;20046;-75
2023/06/03 02:34:58;;;;;;;21.40;19.65;;;5.30;99.90;;;;;;4967543;28;20178;-73
2023/06/03 02:37:25;;;;;;;20.73;19.10;;;5.30;99.90;;;;;;4967846;28;21296;-73
2023/06/03 02:39:53;;;;;;;21.23;19.63;;;5.20;99.90;;;;;;4963890;28;20147;-73
2023/06/03 02:42:20;;;;;;;20.27;18.98;;;5.30;99.90;;;;;;4970460;28;20045;-73
2023/06/03 02:44:47;;;;;;;21.83;20.08;;;5.20;99.90;;;;;;4966806;28;20539;-74
2023/06/03 02:47:14;;;;;;;21.50;19.80;;;5.10;99.90;;;;;;4958572;28;20042;-73
2023/06/03 02:49:41;;;;;;;20.55;19.25;;;5.20;99.90;;;;;;4973134;28;20484;-74
2023/06/03 02:52:08;;;;;;;20.33;19.02;;;5.10;99.90;;;;;;4969014;28;20061;-74
2023/06/03 02:54:35;;;;;;;20.35;19.05;;;5.10;99.90;;;;;;4960480;28;20125;-74
2023/06/03 02:57:02;;;;;;;20.50;18.90;;;5.10;99.90;;;;;;4966519;28;20047;-74
2023/06/03 02:59:28;;;;;;;19.95;18.65;;;5.10;99.90;;;;;;4965214;28;20030;-73
2023/06/03 03:01:55;;;;;;;21.15;19.95;;;5.10;99.90;;;;;;4977864;28;20051;-74
2023/06/03 03:04:22;;;;;;;20.55;18.48;;;5.10;99.90;;;;;;4968454;28;20043;-74
2023/06/03 03:06:49;;;;;;;19.23;18.02;;;5.10;99.90;;;;;;4974675;28;20038;-75
2023/06/03 03:09:17;;;;;;;19.50;18.10;;;5.10;99.90;;;;;;4979914;28;20559;-75
2023/06/03 03:11:45;;;;;;;19.77;18.38;;;5.20;99.90;;;;;;4971800;28;20529;-73
2023/06/03 03:14:14;;;;;;;19.27;18.17;;;5.20;99.90;;;;;;4971095;28;20139;-74
2023/06/03 03:16:41;;;;;;;19.27;17.98;;;5.30;99.90;;;;;;4951528;28;20066;-74
2023/06/03 03:19:08;;;;;;;19.33;18.13;;;5.20;99.90;;;;;;4980909;28;20121;-73
2023/06/03 03:21:36;;;;;;;19.10;17.98;;;5.20;99.90;;;;;;4950322;28;20046;-74
2023/06/03 03:24:08;;;;;;;19.60;18.30;;;5.20;99.90;;;;;;4978811;28;20047;-72
2023/06/03 03:26:37;;;;;;;20.25;18.60;;;5.10;99.90;;;;;;4972860;28;20034;-74
2023/06/03 03:29:05;;;;;;;18.65;17.55;;;5.10;99.90;;;;;;4970270;28;20290;-74
2023/06/03 03:31:32;;;;;;;18.30;17.20;;;5.20;99.90;;;;;;4969079;28;20046;-73
2023/06/03 03:34:02;;;;;;;21.63;20.08;;;5.20;99.90;;;;;;4981769;28;20042;-74
2023/06/03 03:36:30;;;;;;;22.17;20.85;;;5.20;99.90;;;;;;4968585;28;20083;-73
2023/06/03 03:39:05;;;;;;;21.90;20.60;;;5.20;99.90;;;;;;4960629;28;20042;-73
2023/06/03 03:41:42;;;;;;;21.50;20.07;;;5.20;99.90;;;;;;4956704;28;20038;-73
2023/06/03 03:44:11;;;;;;;21.75;20.55;;;5.20;99.90;;;;;;4947844;28;20301;-73
2023/06/03 03:46:46;;;;;;;21.55;20.25;;;5.30;99.90;;;;;;4962695;28;20045;-73
2023/06/03 03:49:22;;;;;;;21.27;20.10;;;5.30;99.90;;;;;;4965959;28;20298;-73
2023/06/03 03:51:50;;;;;;;21.52;20.17;;;5.30;99.90;;;;;;4966905;28;20505;-74
2023/06/03 03:54:24;;;;;;;22.20;20.70;;;5.30;99.90;;;;;;4979672;28;20248;-73
2023/06/03 03:56:55;;;;;;;22.88;21.35;;;5.40;99.90;;;;;;4950122;28;20120;-74
2023/06/03 03:59:26;;;;;;;21.92;20.50;;;5.50;99.90;;;;;;4977243;28;20039;-73
2023/06/03 04:01:55;;;;;;;21.58;20.30;;;5.50;99.90;;;;;;4972217;28;20050;-72
2023/06/03 04:04:40;;;;;;;21.85;20.55;;;5.50;99.90;;;;;;4970175;28;20474;-76
2023/06/03 04:07:10;;;;;;;22.95;21.38;;;5.70;99.90;;;;;;4971280;28;20046;-73
2023/06/03 04:09:39;;;;;;;21.95;20.75;;;5.80;99.90;;;;;;4974068;28;20043;-74
2023/06/03 04:12:18;;;;;;;22.77;21.48;;;5.90;99.90;;;;;;4970302;28;20061;-73
2023/06/03 04:14:50;;;;;;;23.75;22.45;;;6.10;99.90;;;;;;4970887;28;20268;-72
2023/06/03 04:17:21;;;;;;;23.20;21.90;;;6.50;99.90;;;;;;4967500;28;20420;-75
2023/06/03 04:19:48;;;;;;;24.92;23.23;;;6.90;99.90;;;;;;4977311;28;20560;-74
2023/06/03 04:22:23;;;;;;;23.48;22.17;;;7.20;99.90;;;;;;4976001;28;20039;-72
2023/06/03 04:24:58;;;;;;;23.45;22.15;;;7.40;99.90;;;;;;4982832;28;20085;-75
2023/06/03 04:27:41;;;;;;;24.33;22.73;;;7.50;99.90;;;;;;4974619;28;20125;-75
2023/06/03 04:30:10;;;;;;;23.23;21.90;;;7.70;99.90;;;;;;4975365;28;20047;-74
2023/06/03 04:32:37;;;;;;;23.83;22.42;;;8.20;99.90;;;;;;4973934;28;20050;-76
2023/06/03 04:35:05;;;;;;;23.42;22.02;;;8.60;99.90;;;;;;4989007;28;20145;-75
2023/06/03 04:37:35;;;;;;;23.80;22.30;;;9.00;99.90;;;;;;4968296;28;20141;-73
2023/06/03 04:40:04;;;;;;;24.50;23.00;;;9.40;99.90;;;;;;4967276;28;20117;-73
2023/06/03 04:42:30;;;;;;;23.75;22.20;;;9.60;99.90;;;;;;4955370;28;20045;-75
2023/06/03 04:45:00;;;;;;;24.05;22.42;;;9.80;99.90;;;;;;4969776;28;20657;-74
2023/06/03 04:47:29;;;;;;;24.70;23.20;;;10.00;99.90;;;;;;4973098;28;20046;-74
2023/06/03 04:49:58;;;;;;;25.10;23.50;;;10.20;99.90;;;;;;4973660;28;20278;-74
2023/06/03 04:52:25;;;;;;;25.05;23.52;;;10.30;99.90;;;;;;4969766;28;20528;-74
2023/06/03 04:54:53;;;;;;;24.83;23.27;;;10.60;99.90;;;;;;4971939;28;20137;-76
2023/06/03 04:57:23;;;;;;;24.63;23.17;;;10.60;99.90;;;;;;4972578;28;20061;-75
2023/06/03 04:59:50;;;;;;;25.33;23.83;;;10.80;99.90;;;;;;4976696;28;20141;-75
2023/06/03 05:02:20;;;;;;;24.67;23.20;;;10.90;99.90;;;;;;4971020;28;20280;-75
2023/06/03 05:04:49;;;;;;;26.17;24.40;;;11.10;99.90;;;;;;4974142;28;20374;-75
2023/06/03 05:07:16;;;;;;;26.15;24.33;;;11.00;99.90;;;;;;4971529;28;20696;-75
2023/06/03 05:09:45;;;;;;;26.02;24.42;;;10.90;99.90;;;;;;4952777;28;20077;-75
2023/06/03 05:12:12;;;;;;;26.55;24.70;;;10.90;99.90;;;;;;4988591;28;20055;-75
2023/06/03 05:14:39;;;;;;;25.98;24.38;;;11.00;99.90;;;;;;4964600;28;20050;-74
2023/06/03 05:17:05;;;;;;;25.38;23.95;;;11.20;99.90;;;;;;4964768;28;20314;-75
2023/06/03 05:19:35;;;;;;;25.77;24.38;;;11.40;99.90;;;;;;4968142;28;20137;-74
2023/06/03 05:22:03;;;;;;;26.50;24.73;;;11.60;99.90;;;;;;4969113;28;20196;-75
2023/06/03 05:24:31;;;;;;;26.35;24.85;;;11.60;99.90;;;;;;4972114;28;20087;-74
2023/06/03 05:26:59;;;;;;;26.38;24.88;;;11.70;99.90;;;;;;4973816;28;20565;-75
2023/06/03 05:29:26;;;;;;;26.48;24.98;;;11.30;99.90;;;;;;4970512;28;20053;-74
2023/06/03 05:31:53;;;;;;;26.85;24.98;;;11.40;99.90;;;;;;4984218;28;20215;-75
2023/06/03 05:34:20;;;;;;;26.92;25.33;;;11.60;99.90;;;;;;4973615;28;20471;-74
2023/06/03 05:36:47;;;;;;;26.80;25.10;;;11.70;99.90;;;;;;4970379;28;20042;-75
2023/06/03 05:39:14;;;;;;;27.30;25.65;;;12.00;99.90;;;;;;4968302;28;20042;-73
2023/06/03 05:41:42;;;;;;;26.98;25.38;;;11.90;99.90;;;;;;4968972;28;20515;-75
2023/06/03 05:44:10;;;;;;;26.73;25.20;;;12.10;99.90;;;;;;4967573;28;20042;-75
2023/06/03 05:46:38;;;;;;;27.08;25.27;;;12.10;99.90;;;;;;4984375;28;20108;-75
2023/06/03 05:49:05;;;;;;;28.25;26.38;;;11.80;99.90;;;;;;4969498;28;20129;-75
2023/06/03 05:51:32;;;;;;;27.83;26.17;;;12.00;99.90;;;;;;4967908;28;20038;-74
2023/06/03 05:53:59;;;;;;;28.27;26.48;;;12.00;99.90;;;;;;4970389;28;20651;-74
2023/06/03 05:56:26;;;;;;;31.50;29.60;;;11.90;99.90;;;;;;4965142;28;20065;-75
2023/06/03 05:58:53;;;;;;;32.38;30.58;;;12.10;99.90;;;;;;4964790;28;20042;-75
2023/06/03 06:01:20;;;;;;;31.80;29.90;;;12.20;99.90;;;;;;4980914;28;20055;-74
2023/06/03 06:03:48;;;;;;;32.63;30.83;;;12.20;99.90;;;;;;4970252;28;20106;-74
2023/06/03 06:06:16;;;;;;;32.90;31.00;;;12.30;99.90;;;;;;4980293;28;20120;-74
2023/06/03 06:08:43;;;;;;;34.20;32.40;;;12.20;99.90;;;;;;4970425;28;20485;-73
2023/06/03 06:11:10;;;;;;;35.85;34.13;;;12.40;99.90;;;;;;4984654;28;20124;-73
2023/06/03 06:13:38;;;;;;;35.92;34.10;;;12.30;99.90;;;;;;4946187;28;20175;-74
2023/06/03 06:16:05;;;;;;;35.50;33.47;;;12.40;99.90;;;;;;4970106;28;20051;-74
2023/06/03 06:18:34;;;;;;;35.83;33.92;;;12.50;99.90;;;;;;4969774;28;20039;-74
2023/06/03 06:21:04;;;;;;;35.75;33.53;;;12.70;99.90;;;;;;4965048;28;20057;-74
2023/06/03 06:23:34;;;;;;;35.80;33.95;;;13.00;99.90;;;;;;4968143;28;20065;-73
2023/06/03 06:26:03;;;;;;;37.65;35.65;;;13.10;99.90;;;;;;4966391;28;20129;-75
2023/06/03 06:28:31;;;;;;;37.40;35.38;;;13.20;99.90;;;;;;4965922;28;20048;-74
2023/06/03 06:31:06;;;;;;;36.15;34.15;;;13.30;99.90;;;;;;4964902;28;20056;-74
2023/06/03 06:33:41;;;;;;;37.53;35.38;;;13.40;99.90;;;;;;4962856;28;20461;-74
2023/06/03 06:36:42;;;;;;;39.78;37.50;;;13.70;99.90;;;;;;4979682;28;20046;-74
2023/06/03 06:39:32;;;;;;;39.38;37.28;;;13.80;99.90;;;;;;4956480;28;20146;-73
2023/06/03 06:42:33;;;;;;;38.03;35.90;;;14.30;99.90;;;;;;4982972;28;20046;-74
2023/06/03 06:45:16;;;;;;;40.47;38.33;;;14.20;99.90;;;;;;4950275;28;20100;-73
2023/06/03 06:47:45;;;;;;;39.85;37.63;;;14.30;99.90;;;;;;4985968;28;20053;-73
2023/06/03 06:50:43;;;;;;;40.33;37.97;;;14.00;99.90;;;;;;4962041;28;20545;-74
2023/06/03 06:53:10;;;;;;;38.85;36.67;;;14.40;99.90;;;;;;4970987;28;20204;-74
2023/06/03 06:55:49;;;;;;;39.95;37.65;;;14.30;99.90;;;;;;4976088;28;20053;-72
2023/06/03 06:58:20;;;;;;;38.50;36.50;;;14.40;99.90;;;;;;4970366;28;20081;-75
2023/06/03 07:00:48;;;;;;;39.70;37.63;;;14.10;99.90;;;;;;4981006;28;20204;-74
2023/06/03 07:03:17;;;;;;;38.63;36.53;;;14.20;99.90;;;;;;4968972;28;20103;-75
2023/06/03 07:05:46;;;;;;;39.10;37.00;;;14.30;99.90;;;;;;4960865;28;20085;-75
2023/06/03 07:08:13;;;;;;;39.72;37.53;;;14.10;99.90;;;;;;4965311;28;20386;-74
2023/06/03 07:10:39;;;;;;;38.53;36.47;;;14.30;99.90;;;;;;4969099;28;20050;-77
2023/06/03 07:13:07;;;;;;;38.65;36.55;;;14.90;99.90;;;;;;4979413;28;20047;-75
2023/06/03 07:15:39;;;;;;;38.53;36.33;;;15.10;99.90;;;;;;4969184;28;20042;-74
2023/06/03 07:18:09;;;;;;;40.10;38.00;;;15.50;99.90;;;;;;4971383;28;20054;-75
2023/06/03 07:20:40;;;;;;;39.70;37.45;;;15.10;99.90;;;;;;4968279;28;20068;-74
2023/06/03 07:23:13;;;;;;;41.28;39.13;;;14.70;99.90;;;;;;4983787;28;20046;-75
2023/06/03 07:25:45;;;;;;;44.33;41.72;;;14.70;99.90;;;;;;4968311;28;20050;-75
2023/06/03 07:28:20;;;;;;;43.65;41.10;;;14.60;99.90;;;;;;4978923;28;20047;-74
2023/06/03 07:30:49;;;;;;;42.05;39.83;;;14.50;99.90;;;;;;4971878;28;20137;-75
2023/06/03 07:33:27;;;;;;;44.13;41.63;;;14.90;99.90;;;;;;4970146;28;20470;-75
2023/06/03 07:36:01;;;;;;;44.15;41.75;;;15.30;99.90;;;;;;4967087;28;20513;-74
2023/06/03 07:38:36;;;;;;;43.58;41.40;;;15.00;99.90;;;;;;4969580;28;20038;-75
2023/06/03 07:41:06;;;;;;;44.83;42.53;;;15.20;99.90;;;;;;4970471;28;20456;-75
2023/06/03 07:43:38;;;;;;;42.65;40.25;;;15.60;99.90;;;;;;4947596;28;20061;-74
2023/06/03 07:46:05;;;;;;;44.63;42.33;;;15.90;99.90;;;;;;4965053;28;20051;-75
2023/06/03 07:48:33;;;;;;;46.67;44.20;;;15.80;99.90;;;;;;4965900;28;20034;-75
2023/06/03 07:51:00;;;;;;;43.92;41.70;;;15.60;99.90;;;;;;4960662;28;20046;-74
2023/06/03 07:53:28;;;;;;;45.58;43.28;;;15.30;99.90;;;;;;4965225;28;20547;-75
2023/06/03 07:55:54;;;;;;;44.47;42.17;;;15.50;99.90;;;;;;4966379;28;20141;-75
2023/06/03 07:58:24;;;;;;;43.75;41.45;;;15.50;99.90;;;;;;4961332;28;20105;-76
2023/06/03 08:00:52;;;;;;;44.40;42.10;;;15.60;99.90;;;;;;4968518;28;20050;-76
2023/06/03 08:03:22;;;;;;;45.70;43.22;;;15.80;99.90;;;;;;4968830;28;20043;-76
2023/06/03 08:05:53;;;;;;;45.42;43.15;;;15.40;99.90;;;;;;4972929;28;20050;-76
2023/06/03 08:08:28;;;;;;;46.63;44.05;;;15.90;99.90;;;;;;4965297;28;20500;-76
2023/06/03 08:10:55;;;;;;;;;;;16.20;99.90;;;;;;4967529;28;20469;-76
2023/06/03 08:13:22;;;;;;;45.80;43.40;;;16.20;99.90;;;;;;4966943;28;19944;-76
2023/06/03 08:15:48;;;;;;;45.10;42.60;;;16.30;99.90;;;;;;4966806;28;20109;-76
2023/06/03 08:18:44;;;;;;;46.28;43.78;;;16.20;99.90;;;;;;4966036;28;20513;-76
2023/06/03 08:21:12;;;;;;;47.40;44.72;;;16.00;99.90;;;;;;4965630;28;20559;-75
2023/06/03 08:23:39;;;;;;;45.85;43.50;;;15.90;99.90;;;;;;4969820;28;20039;-76
2023/06/03 08:26:08;;;;;;;45.92;43.45;;;15.90;99.90;;;;;;4965446;28;20465;-75
2023/06/03 08:28:38;;;;;;;47.58;45.15;;;16.20;99.90;;;;;;4967900;28;20061;-76
2023/06/03 08:31:06;;;;;;;44.80;42.40;;;16.40;99.90;;;;;;4970573;28;20054;-76
2023/06/03 08:33:33;;;;;;;47.15;44.58;;;16.30;99.90;;;;;;4970292;28;20811;-76
2023/06/03 08:36:00;;;;;;;45.53;43.03;;;16.70;99.90;;;;;;4968004;28;20235;-76
2023/06/03 08:38:27;;;;;;;45.30;42.55;;;16.90;99.90;;;;;;4965395;28;20413;-73
2023/06/03 08:40:54;;;;;;;46.58;44.03;;;16.50;99.90;;;;;;4966192;28;20113;-76
2023/06/03 08:43:22;;;;;;;46.35;43.45;;;16.50;99.90;;;;;;4964216;28;20050;-74
2023/06/03 08:46:09;;;;;;;46.65;44.30;;;16.70;99.90;;;;;;4967724;28;20104;-74
2023/06/03 08:49:00;;;;;;;46.85;44.40;;;16.60;99.90;;;;;;4965900;28;20054;-76
2023/06/03 08:51:36;;;;;;;45.65;43.15;;;16.40;99.90;;;;;;4982918;28;20098;-75
2023/06/03 08:54:13;;;;;;;45.13;42.75;;;16.00;99.90;;;;;;4975123;28;20054;-75
2023/06/03 08:56:56;;;;;;;46.08;43.20;;;16.20;99.90;;;;;;4964468;28;20050;-75
2023/06/03 08:59:25;;;;;;;47.58;44.83;;;16.80;99.90;;;;;;4982231;28;20166;-76
2023/06/03 09:01:55;;;;;;;45.40;42.92;;;16.70;99.90;;;;;;4973136;28;20118;-75
2023/06/03 09:04:24;;;;;;;45.33;42.90;;;16.80;99.90;;;;;;4969059;28;20043;-75
2023/06/03 09:06:51;;;;;;;47.47;44.67;;;17.00;99.90;;;;;;4987482;28;20062;-75
2023/06/03 09:09:21;;;;;;;43.25;41.03;;;16.90;99.90;;;;;;4986351;28;20150;-75
2023/06/03 09:11:49;;;;;;;44.38;41.97;;;16.70;99.90;;;;;;4962657;28;20075;-75
2023/06/03 09:14:18;;;;;;;46.38;43.92;;;16.80;99.90;;;;;;4988687;28;20055;-74
2023/06/03 09:16:45;;;;;;;45.10;42.70;;;16.60;99.90;;;;;;4967765;28;20051;-75
2023/06/03 09:19:11;;;;;;;46.13;43.72;;;16.70;99.90;;;;;;4960929;28;20549;-75
2023/06/03 09:21:42;;;;;;;46.03;43.42;;;16.90;99.90;;;;;;4970040;28;20089;-75
2023/06/03 09:24:11;;;;;;;47.22;44.63;;;17.10;99.90;;;;;;4969843;28;20047;-75
2023/06/03 09:26:37;;;;;;;46.53;44.15;;;17.40;99.90;;;;;;4968882;28;20529;-74
2023/06/03 09:29:06;;;;;;;43.83;41.55;;;17.50;99.90;;;;;;4970387;28;20125;-74
2023/06/03 09:31:33;;;;;;;43.85;41.72;;;17.80;99.90;;;;;;4968071;28;20046;-74
2023/06/03 09:34:01;;;;;;;42.97;40.78;;;17.60;99.90;;;;;;4966675;28;20039;-76
2023/06/03 09:36:28;;;;;;;42.33;40.13;;;17.90;99.90;;;;;;4965755;28;20453;-73
2023/06/03 09:38:56;;;;;;;47.17;44.80;;;17.60;99.90;;;;;;4971379;28;20599;-75
2023/06/03 09:41:26;;;;;;;43.55;41.35;;;17.00;99.90;;;;;;4963656;28;20120;-75
2023/06/03 09:43:57;;;;;;;44.22;42.03;;;17.10;99.90;;;;;;4970455;28;20042;-74
2023/06/03 09:46:26;;;;;;;46.17;43.67;;;17.20;99.90;;;;;;4966825;28;20046;-73
2023/06/03 09:48:53;;;;;;;45.28;42.92;;;17.70;99.90;;;;;;4948812;28;20211;-73
2023/06/03 09:51:20;;;;;;;44.45;42.25;;;18.10;99.90;;;;;;4966549;28;20457;-73
2023/06/03 09:54:13;;;;;;;40.10;38.10;;;18.60;99.90;;;;;;4967404;28;20053;-75
2023/06/03 09:56:40;;;;;;;43.83;41.72;;;19.50;99.90;;;;;;4964222;28;20315;-74
2023/06/03 09:59:17;;;;;;;46.10;43.90;;;19.80;99.90;;;;;;4970999;28;20116;-72
2023/06/03 10:01:48;;;;;;;46.78;44.47;;;18.40;99.90;;;;;;4967436;28;20280;-73
2023/06/03 10:04:22;;;;;;;45.75;43.45;;;18.10;99.90;;;;;;4966326;28;20080;-73
2023/06/03 10:07:06;;;;;;;47.17;44.67;;;18.30;99.50;;;;;;4967393;28;20605;-73
2023/06/03 10:09:33;;;;;;;47.42;45.03;;;18.60;99.90;;;;;;4965165;28;20560;-74
2023/06/03 10:11:59;;;;;;;47.88;45.28;;;17.80;99.90;;;;;;4961014;28;20505;-74
2023/06/03 10:14:29;;;;;;;48.92;46.42;;;17.70;99.90;;;;;;4965343;28;20140;-74
2023/06/03 10:17:06;;;;;;;46.28;43.67;;;18.10;99.50;;;;;;4971651;28;20121;-74
2023/06/03 10:19:41;;;;;;;46.33;43.88;;;18.60;99.00;;;;;;4959437;28;20133;-74
2023/06/03 10:22:09;;;;;;;46.50;43.83;;;18.30;99.80;;;;;;4969250;28;20584;-74
2023/06/03 10:24:44;;;;;;;47.40;44.80;;;18.20;98.60;;;;;;4960698;28;20051;-73
2023/06/03 10:27:14;;;;;;;49.65;47.10;;;18.20;98.30;;;;;;4968017;28;20528;-73
2023/06/03 10:29:40;;;;;;;47.45;45.05;;;18.30;96.90;;;;;;4964602;28;20137;-74
2023/06/03 10:32:09;;;;;;;47.05;44.65;;;19.10;98.00;;;;;;4966775;28;20047;-73
2023/06/03 10:34:41;;;;;;;47.88;45.47;;;18.30;96.00;;;;;;4968730;28;20050;-74
2023/06/03 10:37:14;;;;;;;51.28;48.78;;;18.10;97.00;;;;;;4969340;28;20058;-73
2023/06/03 10:39:44;;;;;;;51.45;48.85;;;18.60;97.50;;;;;;4960404;28;20102;-74
2023/06/03 10:42:12;;;;;;;49.63;47.03;;;18.50;97.10;;;;;;4968520;28;20213;-75
2023/06/03 10:44:39;;;;;;;52.28;49.58;;;18.60;96.30;;;;;;4966850;28;20505;-75
2023/06/03 10:47:15;;;;;;;49.97;47.47;;;19.00;97.50;;;;;;4967611;28;20216;-74
2023/06/03 10:49:51;;;;;;;51.13;48.47;;;18.80;96.90;;;;;;4964568;28;20043;-76
2023/06/03 10:52:43;;;;;;;49.33;46.75;;;18.70;97.40;;;;;;4969827;28;20543;-74
2023/06/03 10:55:33;;;;;;;49.58;46.85;;;18.70;96.70;;;;;;4964747;28;20153;-75
2023/06/03 10:58:08;;;;;;;50.53;47.92;;;18.60;97.60;;;;;;4967133;28;20042;-74
2023/06/03 11:00:55;;;;;;;50.95;48.25;;;18.30;96.80;;;;;;4962380;28;20250;-74
2023/06/03 11:03:27;;;;;;;50.42;47.97;;;18.90;97.30;;;;;;4963855;28;20133;-76
2023/06/03 11:06:21;;;;;;;52.88;50.17;;;18.70;96.20;;;;;;4972543;28;20109;-74
2023/06/03 11:09:03;;;;;;;52.70;50.10;;;19.30;97.40;;;;;;4967315;28;20138;-75
2023/06/03 11:11:42;;;;;;;53.13;50.53;;;18.90;97.70;;;;;;4964982;28;20066;-74
2023/06/03 11:14:42;;;;;;;50.95;48.25;;;19.40;97.50;;;;;;4967107;28;20046;-75
2023/06/03 11:17:10;;;;;;;51.88;49.25;;;20.20;97.10;;;;;;4961745;28;20042;-75
2023/06/03 11:19:51;;;;;;;51.33;48.63;;;19.90;97.00;;;;;;4986688;28;20038;-75
2023/06/03 11:22:27;;;;;;;49.63;47.08;;;20.00;95.80;;;;;;4969031;28;20045;-75
2023/06/03 11:25:01;;;;;;;51.42;48.85;;;18.90;95.20;;;;;;4961606;28;20055;-75
2023/06/03 11:27:29;;;;;;;52.35;49.75;;;18.90;96.90;;;;;;4970528;28;20039;-76
2023/06/03 11:29:59;;;;;;;50.83;48.22;;;19.10;97.60;;;;;;4967249;28;20042;-75
2023/06/03 11:32:35;;;;;;;50.97;48.28;;;18.50;96.10;;;;;;4962952;28;20053;-74
2023/06/03 11:35:05;;;;;;;50.53;48.03;;;18.90;98.80;;;;;;4954003;28;20074;-74
2023/06/03 11:37:41;;;;;;;53.55;50.83;;;19.50;97.30;;;;;;4969004;28;20145;-75
2023/06/03 11:40:14;;;;;;;52.42;49.72;;;19.00;96.30;;;;;;4959563;28;20100;-75
2023/06/03 11:43:03;;;;;;;53.40;50.63;;;18.50;96.90;;;;;;4968353;28;20518;-74
2023/06/03 11:45:32;;;;;;;54.10;51.38;;;18.80;98.20;;;;;;4964670;28;20042;-75
2023/06/03 11:48:02;;;;;;;54.13;51.42;;;19.20;98.50;;;;;;4961736;28;20042;-75
2023/06/03 11:50:33;;;;;;;56.53;53.53;;;19.10;96.40;;;;;;4961189;28;20612;-76
2023/06/03 11:53:00;;;;;;;53.30;50.63;;;19.30;95.40;;;;;;4984284;28;20779;-76
2023/06/03 11:55:30;;;;;;;53.42;50.72;;;19.40;96.00;;;;;;4960271;28;20125;-75
2023/06/03 11:58:09;;;;;;;51.30;48.50;;;19.00;96.70;;;;;;4970681;28;20042;-76
2023/06/03 12:00:39;;;;;;;56.42;53.53;;;18.90;96.00;;;;;;4966258;28;20052;-75
2023/06/03 12:03:14;;;;;;;54.15;51.55;;;18.80;97.30;;;;;;4966518;28;20043;-75
2023/06/03 12:05:55;;;;;;;50.72;48.33;;;18.80;96.20;;;;;;4964004;28;20043;-75
2023/06/03 12:08:22;;;;;;;52.10;49.50;;;19.10;96.10;;;;;;4962832;28;20067;-75
2023/06/03 12:10:51;;;;;;;53.05;50.47;;;19.20;98.00;;;;;;4963928;28;20108;-75
2023/06/03 12:13:17;;;;;;;53.60;50.80;;;19.50;98.50;;;;;;4970869;28;20050;-73
2023/06/03 12:15:48;;;;;;;51.90;49.30;;;19.20;95.80;;;;;;4964690;28;20042;-76
2023/06/03 12:18:15;;;;;;;52.30;49.35;;;19.10;96.50;;;;;;4973328;28;20130;-76
2023/06/03 12:20:41;;;;;;;49.80;47.20;;;18.70;97.90;;;;;;4968527;28;20306;-76
2023/06/03 12:23:10;;;;;;;49.95;47.45;;;19.50;99.70;;;;;;4963029;28;20295;-74
2023/06/03 12:25:37;;;;;;;52.85;50.13;;;20.10;98.70;;;;;;4967470;28;20780;-74
2023/06/03 12:28:24;;;;;;;49.65;47.08;;;20.10;95.20;;;;;;4973212;28;20062;-74
2023/06/03 12:30:51;;;;;;;48.78;46.38;;;20.00;93.70;;;;;;4967156;28;20049;-74
2023/06/03 12:33:18;;;;;;;51.85;49.35;;;19.60;95.40;;;;;;4969963;28;20512;-74
2023/06/03 12:35:55;;;;;;;49.60;46.65;;;19.70;96.60;;;;;;4972912;28;20556;-74
2023/06/03 12:38:23;;;;;;;49.67;47.13;;;20.00;95.80;;;;;;4968879;28;20488;-74
2023/06/03 12:40:52;;;;;;;52.15;49.53;;;19.90;95.60;;;;;;4972523;28;20521;-74
2023/06/03 12:43:21;;;;;;;52.42;49.42;;;19.90;95.70;;;;;;4973954;28;20096;-74
2023/06/03 12:45:48;;;;;;;50.13;47.35;;;20.10;98.10;;;;;;4964600;28;20097;-74
2023/06/03 12:48:31;;;;;;;52.47;49.72;;;20.30;97.10;;;;;;4965191;28;20116;-76